Time;durP1;ratioP1;P1;durP2;ratioP2;P2;SDS_P1;SDS_P2;PMS_P1;PMS_P2;Temp;Humidity;BMP_temperature;BMP_pressure;BME280_temperature;BME280_humidity;BME280_pressure;Samples;Min_cycle;Max_cycle;Signal;HPM_P1;HPM_P2
2023/05/12 00:02:01;;;;;;;1.90;1.90;;;;;;;;;;5066448;28;20441;-68
2023/05/12 00:04:27;;;;;;;1.07;1.07;;;;;;;;;;5065022;28;20558;-70
2023/05/12 00:06:53;;;;;;;4.80;2.13;;;;;;;;;;5062761;28;20438;-69
2023/05/12 00:09:19;;;;;;;1.30;1.30;;;;;;;;;;5068614;28;20444;-69
2023/05/12 00:11:47;;;;;;;1.93;1.83;;;;;;;;;;5066055;28;20520;-73
2023/05/12 00:14:13;;;;;;;1.60;1.60;;;;;;;;;;5067141;28;20437;-67
2023/05/12 00:16:39;;;;;;;1.23;1.23;;;;;;;;;;5068937;28;20436;-67
2023/05/12 00:19:05;;;;;;;1.70;1.70;;;;;;;;;;5068969;28;20455;-67
2023/05/12 00:21:31;;;;;;;1.70;1.70;;;;;;;;;;5066826;28;20428;-67
2023/05/12 00:23:57;;;;;;;1.50;1.50;;;;;;;;;;5061738;28;20449;-66
2023/05/12 00:26:23;;;;;;;2.20;1.60;;;;;;;;;;5062386;28;20499;-68
2023/05/12 00:28:49;;;;;;;2.20;1.40;;;;;;;;;;5063881;28;20516;-68
2023/05/12 00:31:15;;;;;;;1.80;1.80;;;;;;;;;;5067130;28;20429;-67
2023/05/12 00:33:41;;;;;;;1.23;1.23;;;;;;;;;;5067449;28;20429;-70
2023/05/12 00:36:07;;;;;;;1.40;1.40;;;;;;;;;;5067980;28;20952;-73
2023/05/12 00:38:35;;;;;;;6.30;1.60;;;;;;;;;;5067071;28;20627;-71
2023/05/12 00:41:02;;;;;;;1.53;1.53;;;;;;;;;;5066853;28;20471;-72
2023/05/12 00:43:29;;;;;;;1.67;1.67;;;;;;;;;;5068367;28;20486;-67
2023/05/12 00:45:55;;;;;;;1.70;1.60;;;;;;;;;;5068585;28;20487;-66
2023/05/12 00:48:21;;;;;;;1.80;1.80;;;;;;;;;;5066518;28;20445;-70
2023/05/12 00:50:48;;;;;;;7.07;2.10;;;;;;;;;;5066332;28;20513;-67
2023/05/12 00:53:14;;;;;;;2.30;1.43;;;;;;;;;;5069052;28;20465;-67
2023/05/12 00:55:41;;;;;;;1.30;1.30;;;;;;;;;;5067006;28;20526;-67
2023/05/12 00:58:07;;;;;;;4.23;2.00;;;;;;;;;;5066601;28;20520;-68
2023/05/12 01:00:33;;;;;;;1.33;1.33;;;;;;;;;;5068421;28;20925;-68
2023/05/12 01:02:59;;;;;;;2.03;1.70;;;;;;;;;;5069257;28;20441;-69
2023/05/12 01:05:31;;;;;;;2.33;2.23;;;;;;;;;;5066874;28;20456;-71
2023/05/12 01:07:59;;;;;;;2.00;2.00;;;;;;;;;;5063596;28;22045;-68
2023/05/12 01:10:26;;;;;;;2.77;2.23;;;;;;;;;;5068798;28;20426;-72
2023/05/12 01:12:52;;;;;;;1.50;1.50;;;;;;;;;;5062646;28;20488;-72
2023/05/12 01:15:18;;;;;;;2.03;1.93;;;;;;;;;;5065535;28;20429;-71
2023/05/12 01:17:47;;;;;;;1.83;1.83;;;;;;;;;;5066319;28;20493;-69
2023/05/12 01:20:14;;;;;;;1.77;1.67;;;;;;;;;;5067993;28;20425;-67
2023/05/12 01:22:41;;;;;;;2.27;2.27;;;;;;;;;;5064930;28;20449;-68
2023/05/12 01:25:10;;;;;;;1.87;1.80;;;;;;;;;;5068531;28;20437;-67
2023/05/12 01:27:38;;;;;;;2.27;2.20;;;;;;;;;;5072307;28;20434;-68
2023/05/12 01:30:04;;;;;;;2.27;1.90;;;;;;;;;;5070196;28;20443;-70
2023/05/12 01:32:30;;;;;;;3.63;2.10;;;;;;;;;;5068757;28;20813;-67
2023/05/12 01:34:56;;;;;;;2.33;2.23;;;;;;;;;;5071475;28;20479;-67
2023/05/12 01:37:25;;;;;;;2.97;2.77;;;;;;;;;;5069700;28;20520;-66
2023/05/12 01:39:51;;;;;;;2.50;2.07;;;;;;;;;;5070141;28;20448;-70
2023/05/12 01:42:17;;;;;;;2.70;2.63;;;;;;;;;;5071950;28;20437;-69
2023/05/12 01:44:43;;;;;;;2.10;2.10;;;;;;;;;;5066708;28;20448;-68
2023/05/12 01:47:10;;;;;;;2.20;2.03;;;;;;;;;;5072058;28;20485;-69
2023/05/12 01:49:36;;;;;;;2.70;2.43;;;;;;;;;;5069069;28;20460;-71
2023/05/12 01:52:02;;;;;;;3.13;2.20;;;;;;;;;;5072037;28;20430;-69
2023/05/12 01:54:28;;;;;;;2.30;2.30;;;;;;;;;;5071889;28;20436;-68
2023/05/12 01:56:54;;;;;;;2.10;2.10;;;;;;;;;;5071385;28;20819;-67
2023/05/12 01:59:20;;;;;;;2.07;2.07;;;;;;;;;;5070366;28;20460;-68
2023/05/12 02:01:46;;;;;;;2.07;2.07;;;;;;;;;;5071380;28;20954;-67
2023/05/12 02:04:12;;;;;;;2.50;2.50;;;;;;;;;;5069915;28;21038;-68
2023/05/12 02:06:38;;;;;;;2.00;1.93;;;;;;;;;;5070950;28;20445;-67
2023/05/12 02:09:04;;;;;;;2.27;2.00;;;;;;;;;;5072279;28;20961;-67
2023/05/12 02:11:30;;;;;;;2.00;1.90;;;;;;;;;;5071079;28;20436;-67
2023/05/12 02:13:57;;;;;;;2.03;1.97;;;;;;;;;;5071481;28;20536;-67
2023/05/12 02:16:23;;;;;;;3.93;2.27;;;;;;;;;;5069921;28;20433;-68
2023/05/12 02:18:49;;;;;;;2.13;1.90;;;;;;;;;;5069302;28;20485;-70
2023/05/12 02:21:15;;;;;;;3.60;2.40;;;;;;;;;;5068159;28;20440;-69
2023/05/12 02:23:41;;;;;;;2.87;2.60;;;;;;;;;;5069309;28;20445;-67
2023/05/12 02:26:07;;;;;;;3.00;2.80;;;;;;;;;;5069314;28;20498;-70
2023/05/12 02:28:33;;;;;;;2.53;2.53;;;;;;;;;;5071525;28;20889;-69
2023/05/12 02:30:59;;;;;;;3.37;3.17;;;;;;;;;;5071341;28;20479;-66
2023/05/12 02:33:25;;;;;;;5.80;3.53;;;;;;;;;;5066908;28;20445;-68
2023/05/12 02:35:51;;;;;;;3.43;3.33;;;;;;;;;;5068756;28;20488;-72
2023/05/12 02:38:17;;;;;;;2.97;2.77;;;;;;;;;;5070372;28;20517;-71
2023/05/12 02:40:43;;;;;;;3.07;2.97;;;;;;;;;;5071913;28;20996;-70
2023/05/12 02:43:09;;;;;;;3.00;2.90;;;;;;;;;;5069389;28;20441;-73
2023/05/12 02:45:35;;;;;;;3.83;3.73;;;;;;;;;;5066134;28;20513;-70
2023/05/12 02:48:01;;;;;;;4.00;3.80;;;;;;;;;;5069838;28;20437;-70
2023/05/12 02:50:27;;;;;;;4.93;4.10;;;;;;;;;;5070333;28;20426;-67
2023/05/12 02:52:53;;;;;;;3.67;3.60;;;;;;;;;;5066579;28;20479;-67
2023/05/12 02:55:19;;;;;;;4.03;3.83;;;;;;;;;;5069380;28;20484;-67
2023/05/12 02:57:45;;;;;;;4.17;3.23;;;;;;;;;;5070752;28;20488;-69
2023/05/12 03:00:11;;;;;;;4.00;3.80;;;;;;;;;;5071271;28;20425;-69
2023/05/12 03:02:37;;;;;;;4.97;3.83;;;;;;;;;;5069198;28;20494;-68
2023/05/12 03:05:04;;;;;;;4.17;3.87;;;;;;;;;;5069794;28;20516;-67
2023/05/12 03:07:30;;;;;;;3.47;3.40;;;;;;;;;;5069617;28;20441;-66
2023/05/12 03:09:57;;;;;;;3.90;3.70;;;;;;;;;;5070420;28;21052;-67
2023/05/12 03:12:23;;;;;;;4.60;4.20;;;;;;;;;;5067303;28;20452;-70
2023/05/12 03:14:50;;;;;;;4.23;3.93;;;;;;;;;;5069575;28;20432;-68
2023/05/12 03:17:17;;;;;;;12.30;5.20;;;;;;;;;;5065087;28;20473;-68
2023/05/12 03:19:42;;;;;;;5.03;4.83;;;;;;;;;;5070070;28;21008;-71
2023/05/12 03:22:09;;;;;;;4.43;4.13;;;;;;;;;;5069933;28;20455;-67
2023/05/12 03:24:35;;;;;;;3.63;3.53;;;;;;;;;;5070707;28;20443;-69
2023/05/12 03:27:01;;;;;;;4.13;3.93;;;;;;;;;;5067174;28;20473;-71
2023/05/12 03:29:27;;;;;;;6.13;3.97;;;;;;;;;;5070447;28;20468;-73
2023/05/12 03:31:53;;;;;;;3.63;3.53;;;;;;;;;;5067754;28;20551;-68
2023/05/12 03:34:19;;;;;;;4.10;4.00;;;;;;;;;;5070551;28;20429;-70
2023/05/12 03:36:45;;;;;;;3.40;3.23;;;;;;;;;;5067687;28;20859;-73
2023/05/12 03:39:11;;;;;;;3.07;2.97;;;;;;;;;;5069682;28;20433;-71
2023/05/12 03:41:38;;;;;;;3.47;3.30;;;;;;;;;;5067886;28;20437;-68
2023/05/12 03:44:07;;;;;;;7.70;5.10;;;;;;;;;;5063714;28;20845;-67
2023/05/12 03:46:33;;;;;;;3.80;3.70;;;;;;;;;;5067531;28;20895;-70
2023/05/12 03:48:59;;;;;;;4.63;4.43;;;;;;;;;;5069419;28;20953;-68
2023/05/12 03:51:26;;;;;;;4.00;3.90;;;;;;;;;;5068434;28;20859;-71
2023/05/12 03:53:52;;;;;;;7.03;4.60;;;;;;;;;;5065942;28;20465;-68
2023/05/12 03:56:18;;;;;;;5.30;5.00;;;;;;;;;;5069970;28;20428;-69
2023/05/12 03:58:47;;;;;;;5.30;4.90;;;;;;;;;;5069922;28;20508;-67
2023/05/12 04:01:13;;;;;;;5.37;5.10;;;;;;;;;;5066398;28;20437;-70
2023/05/12 04:03:40;;;;;;;5.43;5.00;;;;;;;;;;5066902;28;20460;-69
2023/05/12 04:06:06;;;;;;;5.33;5.00;;;;;;;;;;5069622;28;20554;-68
2023/05/12 04:08:32;;;;;;;8.63;4.97;;;;;;;;;;5069149;28;20445;-66
2023/05/12 04:10:59;;;;;;;6.43;5.10;;;;;;;;;;5067962;28;20540;-67
2023/05/12 04:13:26;;;;;;;4.73;4.53;;;;;;;;;;5066879;28;20440;-69
2023/05/12 04:15:54;;;;;;;10.90;4.67;;;;;;;;;;5068492;28;20473;-66
2023/05/12 04:18:20;;;;;;;6.23;5.13;;;;;;;;;;5067642;28;20539;-66
2023/05/12 04:20:46;;;;;;;5.90;5.50;;;;;;;;;;5068198;28;20925;-66
2023/05/12 04:23:14;;;;;;;5.97;5.40;;;;;;;;;;5060627;28;20491;-66
2023/05/12 04:25:40;;;;;;;5.20;4.80;;;;;;;;;;5067842;28;20425;-69
2023/05/12 04:28:06;;;;;;;5.80;5.37;;;;;;;;;;5066839;28;20446;-66
2023/05/12 04:30:32;;;;;;;5.10;4.80;;;;;;;;;;5069418;28;20433;-66
2023/05/12 04:32:58;;;;;;;5.50;5.17;;;;;;;;;;5066447;28;20445;-66
2023/05/12 04:35:24;;;;;;;5.57;5.27;;;;;;;;;;5068552;28;20444;-66
2023/05/12 04:37:50;;;;;;;5.23;4.50;;;;;;;;;;5067539;28;20481;-67
2023/05/12 04:40:16;;;;;;;4.93;4.70;;;;;;;;;;5067396;28;20438;-69
2023/05/12 04:42:42;;;;;;;6.00;5.50;;;;;;;;;;5066275;28;20478;-71
2023/05/12 04:45:09;;;;;;;5.53;5.23;;;;;;;;;;5068352;28;20422;-67
2023/05/12 04:47:35;;;;;;;5.43;5.03;;;;;;;;;;5067667;28;20842;-68
2023/05/12 04:50:01;;;;;;;7.17;6.37;;;;;;;;;;5068828;28;20929;-68
2023/05/12 04:52:27;;;;;;;5.97;5.70;;;;;;;;;;5067170;28;20429;-71
2023/05/12 04:54:53;;;;;;;7.93;6.03;;;;;;;;;;5068393;28;20437;-67
2023/05/12 04:57:19;;;;;;;7.00;6.30;;;;;;;;;;5066556;28;20539;-71
2023/05/12 04:59:45;;;;;;;4.73;4.40;;;;;;;;;;5069302;28;20808;-68
2023/05/12 05:02:11;;;;;;;8.37;5.10;;;;;;;;;;5073064;28;20436;-70
2023/05/12 05:04:37;;;;;;;13.00;7.10;;;;;;;;;;5071200;28;20448;-72
2023/05/12 05:07:03;;;;;;;5.87;5.50;;;;;;;;;;5073619;28;20944;-69
2023/05/12 05:09:29;;;;;;;5.93;5.53;;;;;;;;;;5075244;28;20520;-72
2023/05/12 05:11:55;;;;;;;6.70;5.30;;;;;;;;;;5067402;28;20468;-71
2023/05/12 05:14:22;;;;;;;5.37;4.97;;;;;;;;;;5069992;28;20477;-66
2023/05/12 05:16:48;;;;;;;4.87;4.47;;;;;;;;;;5071983;28;20424;-70
2023/05/12 05:19:14;;;;;;;4.37;4.07;;;;;;;;;;5071494;28;20449;-69
2023/05/12 05:21:40;;;;;;;3.63;3.50;;;;;;;;;;5073067;28;20801;-67
2023/05/12 05:24:07;;;;;;;5.17;3.37;;;;;;;;;;5072511;28;20510;-66
2023/05/12 05:26:33;;;;;;;6.83;4.20;;;;;;;;;;5071612;28;20433;-66
2023/05/12 05:28:59;;;;;;;3.60;3.30;;;;;;;;;;5071464;28;20537;-66
2023/05/12 05:31:27;;;;;;;4.90;4.50;;;;;;;;;;5073456;28;20524;-68
2023/05/12 05:33:53;;;;;;;3.40;3.30;;;;;;;;;;5072385;28;20446;-66
2023/05/12 05:36:19;;;;;;;9.63;4.67;;;;;;;;;;5072770;28;20456;-66
2023/05/12 05:38:45;;;;;;;4.03;3.83;;;;;;;;;;5074685;28;20835;-67
2023/05/12 05:41:11;;;;;;;4.43;4.23;;;;;;;;;;5072709;28;20440;-66
2023/05/12 05:43:37;;;;;;;12.97;5.23;;;;;;;;;;5073110;28;20445;-66
2023/05/12 05:46:03;;;;;;;6.37;3.80;;;;;;;;;;5070824;28;20473;-67
2023/05/12 05:48:29;;;;;;;5.90;4.40;;;;;;;;;;5071402;28;20451;-66
2023/05/12 05:50:55;;;;;;;4.33;4.23;;;;;;;;;;5072760;28;20881;-65
2023/05/12 05:53:21;;;;;;;5.93;4.63;;;;;;;;;;5072646;28;20441;-66
2023/05/12 05:55:47;;;;;;;5.50;5.10;;;;;;;;;;5071965;28;20440;-65
2023/05/12 05:58:14;;;;;;;5.93;5.00;;;;;;;;;;5072472;28;21007;-67
2023/05/12 06:00:41;;;;;;;5.97;5.30;;;;;;;;;;5070487;28;20448;-67
2023/05/12 06:03:07;;;;;;;5.37;4.80;;;;;;;;;;5072523;28;20804;-65
2023/05/12 06:05:33;;;;;;;4.00;3.80;;;;;;;;;;5073006;28;20831;-66
2023/05/12 06:07:59;;;;;;;5.10;4.70;;;;;;;;;;5069912;28;20485;-67
2023/05/12 06:10:25;;;;;;;4.33;4.13;;;;;;;;;;5070523;28;20429;-66
2023/05/12 06:12:51;;;;;;;3.67;3.57;;;;;;;;;;5071527;28;20507;-66
2023/05/12 06:15:17;;;;;;;4.73;4.40;;;;;;;;;;5070553;28;20417;-66
2023/05/12 06:17:43;;;;;;;4.43;4.23;;;;;;;;;;5071268;28;20508;-66
2023/05/12 06:20:12;;;;;;;4.10;3.87;;;;;;;;;;5069629;28;20579;-66
2023/05/12 06:22:38;;;;;;;4.33;4.10;;;;;;;;;;5069441;28;20433;-66
2023/05/12 06:25:04;;;;;;;5.60;4.50;;;;;;;;;;5070891;28;20425;-67
2023/05/12 06:27:30;;;;;;;5.97;5.37;;;;;;;;;;5070935;28;20429;-66
2023/05/12 06:29:56;;;;;;;6.83;6.33;;;;;;;;;;5069559;28;20429;-66
2023/05/12 06:32:22;;;;;;;4.73;4.43;;;;;;;;;;5071314;28;20441;-67
2023/05/12 06:34:48;;;;;;;6.10;5.80;;;;;;;;;;5067662;28;20442;-66
2023/05/12 06:37:14;;;;;;;9.40;6.10;;;;;;;;;;5069967;28;21007;-67
2023/05/12 06:39:40;;;;;;;6.70;6.20;;;;;;;;;;5103913;28;20429;-66
2023/05/12 06:42:06;;;;;;;7.17;6.47;;;;;;;;;;5070700;28;20429;-66
2023/05/12 06:44:32;;;;;;;7.03;6.37;;;;;;;;;;5071708;28;20502;-66
2023/05/12 06:46:58;;;;;;;6.50;6.10;;;;;;;;;;5071116;28;20976;-67
2023/05/12 06:49:24;;;;;;;8.40;7.70;;;;;;;;;;5071056;28;20441;-67
2023/05/12 06:51:50;;;;;;;7.40;6.80;;;;;;;;;;5071170;28;20486;-67
2023/05/12 06:54:16;;;;;;;8.60;7.80;;;;;;;;;;5071271;28;20434;-66
2023/05/12 06:56:42;;;;;;;9.67;7.07;;;;;;;;;;5070516;28;20465;-67
2023/05/12 06:59:08;;;;;;;8.83;7.90;;;;;;;;;;5070681;28;20472;-66
2023/05/12 07:01:34;;;;;;;7.33;6.87;;;;;;;;;;5070339;28;20806;-67
2023/05/12 07:04:00;;;;;;;7.30;6.70;;;;;;;;;;5070672;28;20428;-67
2023/05/12 07:06:26;;;;;;;7.20;6.70;;;;;;;;;;5070755;28;20418;-66
2023/05/12 07:08:52;;;;;;;7.27;6.67;;;;;;;;;;5071124;28;20536;-66
2023/05/12 07:11:21;;;;;;;8.17;7.37;;;;;;;;;;5068635;28;20434;-67
2023/05/12 07:13:50;;;;;;;7.27;6.87;;;;;;;;;;5067600;28;20769;-67
2023/05/12 07:16:17;;;;;;;6.53;6.13;;;;;;;;;;5058701;28;20448;-66
2023/05/12 07:18:43;;;;;;;6.90;6.37;;;;;;;;;;5067310;28;21014;-67
2023/05/12 07:21:09;;;;;;;7.83;7.00;;;;;;;;;;5067035;28;20494;-66
2023/05/12 07:23:36;;;;;;;7.77;7.10;;;;;;;;;;5069119;28;20434;-66
2023/05/12 07:26:02;;;;;;;8.07;7.43;;;;;;;;;;5070467;28;20422;-68
2023/05/12 07:28:34;;;;;;;8.80;7.90;;;;;;;;;;5069926;28;20910;-67
2023/05/12 07:31:01;;;;;;;9.97;8.97;;;;;;;;;;5068661;28;20429;-66
2023/05/12 07:33:27;;;;;;;8.40;7.60;;;;;;;;;;5068647;28;20426;-66
2023/05/12 07:35:53;;;;;;;8.23;7.53;;;;;;;;;;5068141;28;21011;-66
2023/05/12 07:38:19;;;;;;;8.63;7.90;;;;;;;;;;5069478;28;20480;-67
2023/05/12 07:40:45;;;;;;;8.17;7.30;;;;;;;;;;5068619;28;20464;-66
2023/05/12 07:43:11;;;;;;;7.30;6.70;;;;;;;;;;5070287;28;20417;-67
2023/05/12 07:45:37;;;;;;;8.47;7.67;;;;;;;;;;5068601;28;20559;-66
2023/05/12 07:48:03;;;;;;;6.97;6.40;;;;;;;;;;5069118;28;20525;-67
2023/05/12 07:50:29;;;;;;;8.20;7.50;;;;;;;;;;5068847;28;20521;-66
2023/05/12 07:52:55;;;;;;;7.30;6.70;;;;;;;;;;5068145;28;20867;-66
2023/05/12 07:55:21;;;;;;;7.97;7.27;;;;;;;;;;5069664;28;20425;-65
2023/05/12 07:57:49;;;;;;;7.33;6.80;;;;;;;;;;5070378;28;20468;-66
2023/05/12 08:00:15;;;;;;;7.23;6.60;;;;;;;;;;5067699;28;20433;-67
2023/05/12 08:02:41;;;;;;;7.00;6.20;;;;;;;;;;5068989;28;20429;-66
2023/05/12 08:05:08;;;;;;;7.50;6.77;;;;;;;;;;5068954;28;20456;-66
2023/05/12 08:07:34;;;;;;;7.40;6.80;;;;;;;;;;5068894;28;21024;-69
2023/05/12 08:10:01;;;;;;;6.73;6.13;;;;;;;;;;5055650;28;20859;-66
2023/05/12 08:12:26;;;;;;;6.97;6.20;;;;;;;;;;5058019;28;21035;-67
2023/05/12 08:14:52;;;;;;;7.63;6.97;;;;;;;;;;5069939;28;20429;-66
2023/05/12 08:17:18;;;;;;;7.77;7.07;;;;;;;;;;5069118;28;21036;-67
2023/05/12 08:19:44;;;;;;;7.37;6.90;;;;;;;;;;5064733;28;20450;-67
2023/05/12 08:22:10;;;;;;;7.47;6.57;;;;;;;;;;5068006;28;20433;-66
2023/05/12 08:24:36;;;;;;;8.23;7.60;;;;;;;;;;5069566;28;20430;-66
2023/05/12 08:27:02;;;;;;;8.90;8.17;;;;;;;;;;5070157;28;20417;-67
2023/05/12 08:29:28;;;;;;;11.27;10.17;;;;;;;;;;5067499;28;20429;-68
2023/05/12 08:31:54;;;;;;;10.70;9.60;;;;;;;;;;5069358;28;20583;-66
2023/05/12 08:34:20;;;;;;;12.40;10.73;;;;;;;;;;5066192;28;20894;-66
2023/05/12 08:36:46;;;;;;;9.13;8.20;;;;;;;;;;5067227;28;21005;-66
2023/05/12 08:39:13;;;;;;;10.43;9.57;;;;;;;;;;5069724;28;20572;-66
2023/05/12 08:41:39;;;;;;;12.40;11.00;;;;;;;;;;5069191;28;20460;-67
2023/05/12 08:44:05;;;;;;;16.10;11.90;;;;;;;;;;5069708;28;20413;-67
2023/05/12 08:46:31;;;;;;;11.17;10.17;;;;;;;;;;5068464;28;20948;-68
2023/05/12 08:48:58;;;;;;;8.73;7.93;;;;;;;;;;5068956;28;20511;-66
2023/05/12 08:51:25;;;;;;;10.97;9.87;;;;;;;;;;5067801;28;20426;-66
2023/05/12 08:53:52;;;;;;;10.73;9.43;;;;;;;;;;5069578;28;20416;-66
2023/05/12 08:56:20;;;;;;;22.20;9.80;;;;;;;;;;5067204;28;20428;-66
2023/05/12 08:58:47;;;;;;;10.67;9.70;;;;;;;;;;5066852;28;20480;-66
2023/05/12 09:01:13;;;;;;;9.20;8.30;;;;;;;;;;5067118;28;20416;-67
2023/05/12 09:03:39;;;;;;;8.70;8.00;;;;;;;;;;5059078;28;20450;-67
2023/05/12 09:06:06;;;;;;;7.57;6.97;;;;;;;;;;5046293;28;20439;-67
2023/05/12 09:08:33;;;;;;;9.00;8.30;;;;;;;;;;5069742;28;20775;-67
2023/05/12 09:10:59;;;;;;;9.03;7.27;;;;;;;;;;5069224;28;20418;-66
2023/05/12 09:13:25;;;;;;;7.00;6.60;;;;;;;;;;5068637;28;20443;-68
2023/05/12 09:15:55;;;;;;;5.73;5.53;;;;;;;;;;5068957;28;20910;-67
2023/05/12 09:18:21;;;;;;;5.13;4.83;;;;;;;;;;5067773;28;20211;-66
2023/05/12 09:20:47;;;;;;;4.70;4.50;;;;;;;;;;5067703;28;20452;-67
2023/05/12 09:23:17;;;;;;;4.50;4.20;;;;;;;;;;5068880;28;20861;-66
2023/05/12 09:25:43;;;;;;;3.77;3.60;;;;;;;;;;5064529;28;20442;-66
2023/05/12 09:28:09;;;;;;;4.43;4.20;;;;;;;;;;5068327;28;20550;-66
2023/05/12 09:30:37;;;;;;;4.70;4.50;;;;;;;;;;5068799;28;20938;-66
2023/05/12 09:33:09;;;;;;;3.27;3.17;;;;;;;;;;5066911;28;20433;-65
2023/05/12 09:35:40;;;;;;;3.50;3.40;;;;;;;;;;5068984;28;20445;-65
2023/05/12 09:38:07;;;;;;;3.57;3.57;;;;;;;;;;5067650;28;20517;-66
2023/05/12 09:40:33;;;;;;;3.43;3.33;;;;;;;;;;5068624;28;20478;-67
2023/05/12 09:42:59;;;;;;;4.20;3.90;;;;;;;;;;5067613;28;20444;-66
2023/05/12 09:45:25;;;;;;;3.03;2.93;;;;;;;;;;5067880;28;20426;-66
2023/05/12 09:47:51;;;;;;;4.27;3.73;;;;;;;;;;5068387;28;20528;-65
2023/05/12 09:50:17;;;;;;;4.37;4.07;;;;;;;;;;5072600;28;20902;-67
2023/05/12 09:52:44;;;;;;;4.13;3.93;;;;;;;;;;5069713;28;20945;-66
2023/05/12 09:55:11;;;;;;;4.77;4.47;;;;;;;;;;5072453;28;20449;-66
2023/05/12 09:57:43;;;;;;;4.77;4.47;;;;;;;;;;5071065;28;20601;-66
2023/05/12 10:00:12;;;;;;;4.93;4.73;;;;;;;;;;5072496;28;20921;-66
2023/05/12 10:02:41;;;;;;;4.67;4.37;;;;;;;;;;5070250;28;20448;-65
2023/05/12 10:05:08;;;;;;;5.20;4.90;;;;;;;;;;5071557;28;20417;-66
2023/05/12 10:07:34;;;;;;;10.73;4.97;;;;;;;;;;5060366;28;20436;-66
2023/05/12 10:10:03;;;;;;;3.70;3.50;;;;;;;;;;5068865;28;20425;-68
2023/05/12 10:12:29;;;;;;;5.80;5.40;;;;;;;;;;5070002;28;20504;-66
2023/05/12 10:14:56;;;;;;;6.40;6.00;;;;;;;;;;5066099;28;20441;-66
2023/05/12 10:17:22;;;;;;;4.93;4.73;;;;;;;;;;5061609;28;20466;-67
2023/05/12 10:19:48;;;;;;;6.10;5.63;;;;;;;;;;5069012;28;20437;-67
2023/05/12 10:22:15;;;;;;;5.40;5.10;;;;;;;;;;5070387;28;20429;-66
2023/05/12 10:24:41;;;;;;;6.03;5.63;;;;;;;;;;5070023;28;20426;-67
2023/05/12 10:27:07;;;;;;;7.40;6.70;;;;;;;;;;5068604;28;20434;-65
2023/05/12 10:29:34;;;;;;;8.47;7.53;;;;;;;;;;5069902;28;20449;-67
2023/05/12 10:32:00;;;;;;;7.90;7.17;;;;;;;;;;5061315;28;20783;-66
2023/05/12 10:34:30;;;;;;;6.50;6.10;;;;;;;;;;5066248;28;20450;-66
2023/05/12 10:36:58;;;;;;;6.77;6.27;;;;;;;;;;5068487;28;21041;-66
2023/05/12 10:39:28;;;;;;;7.37;6.90;;;;;;;;;;5070268;28;20841;-66
2023/05/12 10:42:00;;;;;;;7.50;7.10;;;;;;;;;;5062019;28;20499;-67
2023/05/12 10:44:27;;;;;;;7.63;7.13;;;;;;;;;;5067047;28;20195;-70
2023/05/12 10:47:00;;;;;;;6.77;6.33;;;;;;;;;;5070793;28;20518;-68
2023/05/12 10:49:39;;;;;;;8.13;7.60;;;;;;;;;;5069892;28;20521;-67
2023/05/12 10:52:20;;;;;;;6.10;5.73;;;;;;;;;;5069126;28;20540;-66
2023/05/12 10:54:46;;;;;;;6.93;6.43;;;;;;;;;;5071636;28;20838;-67
2023/05/12 10:57:13;;;;;;;5.90;5.40;;;;;;;;;;5071199;28;20469;-67
2023/05/12 10:59:59;;;;;;;6.13;5.83;;;;;;;;;;5068687;28;20452;-69
2023/05/12 11:02:29;;;;;;;5.60;5.40;;;;;;;;;;5064253;28;20468;-66
2023/05/12 11:05:03;;;;;;;13.63;5.23;;;;;;;;;;5071144;28;20426;-66
2023/05/12 11:07:32;;;;;;;5.67;5.43;;;;;;;;;;5066289;28;20486;-67
2023/05/12 11:10:02;;;;;;;5.83;5.53;;;;;;;;;;5071265;28;20512;-68
2023/05/12 11:12:31;;;;;;;5.73;4.20;;;;;;;;;;5066809;28;20449;-67
2023/05/12 11:14:58;;;;;;;4.67;4.47;;;;;;;;;;5066937;28;20540;-69
2023/05/12 11:17:24;;;;;;;5.13;4.80;;;;;;;;;;5068452;28;20473;-67
2023/05/12 11:19:51;;;;;;;5.07;4.87;;;;;;;;;;5071049;28;20422;-67
2023/05/12 11:22:18;;;;;;;4.20;4.10;;;;;;;;;;5070041;28;20412;-67
2023/05/12 11:24:45;;;;;;;4.53;4.33;;;;;;;;;;5071287;28;20842;-70
2023/05/12 11:27:15;;;;;;;3.90;3.80;;;;;;;;;;5069468;28;20425;-66
2023/05/12 11:29:42;;;;;;;5.70;4.00;;;;;;;;;;5069538;28;20513;-69
2023/05/12 11:32:09;;;;;;;4.27;4.07;;;;;;;;;;5070093;28;20467;-67
2023/05/12 11:34:35;;;;;;;3.70;3.60;;;;;;;;;;5069237;28;20780;-67
2023/05/12 11:37:03;;;;;;;2.50;2.50;;;;;;;;;;5070562;28;20421;-68
2023/05/12 11:39:31;;;;;;;2.53;2.43;;;;;;;;;;5070693;28;20943;-68
2023/05/12 11:42:01;;;;;;;2.63;2.47;;;;;;;;;;5070108;28;20496;-70
2023/05/12 11:44:27;;;;;;;4.17;3.83;;;;;;;;;;5070357;28;21014;-68
2023/05/12 11:47:13;;;;;;;3.83;3.73;;;;;;;;;;5069584;28;20469;-68
2023/05/12 11:49:46;;;;;;;3.03;3.03;;;;;;;;;;5070048;28;20556;-70
2023/05/12 11:52:11;;;;;;;3.07;2.97;;;;;;;;;;5069728;28;20521;-71
2023/05/12 11:54:38;;;;;;;1.97;1.87;;;;;;;;;;5070517;28;20508;-67
2023/05/12 11:57:04;;;;;;;2.03;2.03;;;;;;;;;;5069751;28;20434;-70
2023/05/12 11:59:30;;;;;;;2.60;2.50;;;;;;;;;;5054002;28;20424;-68
2023/05/12 12:01:57;;;;;;;2.50;2.30;;;;;;;;;;5065992;28;20479;-67
2023/05/12 12:04:36;;;;;;;3.70;3.37;;;;;;;;;;5062335;28;20507;-59
2023/05/12 12:07:03;;;;;;;2.47;2.37;;;;;;;;;;5069843;28;20448;-69
2023/05/12 12:09:33;;;;;;;2.10;2.00;;;;;;;;;;5066015;28;20437;-68
2023/05/12 12:12:00;;;;;;;2.00;1.90;;;;;;;;;;5066964;28;20442;-67
2023/05/12 12:14:26;;;;;;;1.40;1.40;;;;;;;;;;5067675;28;20438;-68
2023/05/12 12:16:52;;;;;;;1.40;1.40;;;;;;;;;;5066261;28;20445;-69
2023/05/12 12:19:18;;;;;;;1.63;1.63;;;;;;;;;;5070269;28;20521;-70
2023/05/12 12:21:44;;;;;;;1.50;1.50;;;;;;;;;;5069444;28;20421;-67
2023/05/12 12:24:10;;;;;;;1.43;1.43;;;;;;;;;;5067747;28;20452;-69
2023/05/12 12:26:37;;;;;;;1.13;1.03;;;;;;;;;;5066462;28;20790;-69
2023/05/12 12:29:04;;;;;;;1.70;1.67;;;;;;;;;;5062677;28;21057;-67
2023/05/12 12:31:30;;;;;;;1.87;1.77;;;;;;;;;;5064019;28;20441;-68
2023/05/12 12:33:56;;;;;;;1.50;1.50;;;;;;;;;;5067414;28;20429;-68
2023/05/12 12:36:22;;;;;;;1.53;1.30;;;;;;;;;;5068714;28;20428;-68
2023/05/12 12:38:48;;;;;;;1.47;1.47;;;;;;;;;;5067264;28;20473;-67
2023/05/12 12:41:14;;;;;;;2.37;2.10;;;;;;;;;;5066224;28;20440;-67
2023/05/12 12:43:41;;;;;;;1.50;1.50;;;;;;;;;;5067673;28;20441;-68
2023/05/12 12:46:07;;;;;;;1.60;1.60;;;;;;;;;;5069906;28;20557;-69
2023/05/12 12:48:33;;;;;;;2.53;2.33;;;;;;;;;;5065146;28;20578;-66
2023/05/12 12:51:00;;;;;;;2.10;1.90;;;;;;;;;;5064476;28;20449;-67
2023/05/12 12:53:26;;;;;;;2.40;1.63;;;;;;;;;;5065727;28;20544;-67
2023/05/12 12:55:52;;;;;;;2.40;2.40;;;;;;;;;;5063452;28;20437;-70
2023/05/12 12:58:18;;;;;;;1.70;1.70;;;;;;;;;;5065441;28;20485;-68
2023/05/12 13:00:44;;;;;;;2.80;2.80;;;;;;;;;;5068670;28;20517;-67
2023/05/12 13:03:10;;;;;;;3.10;2.93;;;;;;;;;;5051064;28;20453;-67
2023/05/12 13:05:36;;;;;;;3.03;2.93;;;;;;;;;;5066476;28;20426;-67
2023/05/12 13:08:02;;;;;;;3.50;3.40;;;;;;;;;;5069836;28;20425;-66
2023/05/12 13:10:28;;;;;;;3.80;3.70;;;;;;;;;;5069074;28;20445;-67
2023/05/12 13:12:54;;;;;;;4.10;3.90;;;;;;;;;;5069270;28;20484;-67
2023/05/12 13:15:20;;;;;;;2.80;2.70;;;;;;;;;;5069258;28;20436;-67
2023/05/12 13:17:46;;;;;;;3.43;3.33;;;;;;;;;;5067632;28;20488;-67
2023/05/12 13:20:13;;;;;;;3.97;3.87;;;;;;;;;;5047309;28;20449;-67
2023/05/12 13:22:41;;;;;;;4.00;3.87;;;;;;;;;;5054577;28;20442;-67
2023/05/12 13:25:07;;;;;;;3.40;3.40;;;;;;;;;;5056798;28;22273;-67
2023/05/12 13:27:37;;;;;;;2.70;2.60;;;;;;;;;;5051586;28;21005;-68
2023/05/12 13:30:03;;;;;;;3.20;3.00;;;;;;;;;;5072349;28;20425;-69
2023/05/12 13:32:29;;;;;;;3.67;3.47;;;;;;;;;;5071167;28;20680;-67
2023/05/12 13:34:55;;;;;;;3.63;3.53;;;;;;;;;;5073321;28;20476;-69
2023/05/12 13:37:24;;;;;;;1.63;1.63;;;;;;;;;;5071885;28;20496;-70
2023/05/12 13:39:50;;;;;;;2.53;2.53;;;;;;;;;;5072880;28;20425;-69
2023/05/12 13:42:16;;;;;;;3.93;3.83;;;;;;;;;;5072611;28;20417;-68
2023/05/12 13:44:42;;;;;;;4.10;3.77;;;;;;;;;;5071164;28;20551;-68
2023/05/12 13:47:09;;;;;;;3.70;3.53;;;;;;;;;;5072017;28;20819;-67
2023/05/12 13:49:35;;;;;;;2.60;2.60;;;;;;;;;;5071929;28;20436;-67
2023/05/12 13:52:01;;;;;;;3.23;3.13;;;;;;;;;;5066364;28;20598;-67
2023/05/12 13:54:27;;;;;;;2.60;2.60;;;;;;;;;;5072173;28;20437;-68
2023/05/12 13:56:53;;;;;;;2.20;2.20;;;;;;;;;;5071094;28;20425;-67
2023/05/12 13:59:20;;;;;;;1.80;1.80;;;;;;;;;;5071537;28;20519;-67
2023/05/12 14:01:46;;;;;;;1.93;1.93;;;;;;;;;;5062108;28;20441;-67
2023/05/12 14:04:13;;;;;;;3.03;3.03;;;;;;;;;;5065922;28;20479;-67
2023/05/12 14:06:39;;;;;;;2.73;2.50;;;;;;;;;;5066201;28;20433;-68
2023/05/12 14:09:05;;;;;;;1.80;1.80;;;;;;;;;;5072730;28;20421;-70
2023/05/12 14:11:31;;;;;;;2.43;2.43;;;;;;;;;;5071883;28;20520;-71
2023/05/12 14:14:02;;;;;;;3.53;3.30;;;;;;;;;;5072382;28;20987;-70
2023/05/12 14:16:28;;;;;;;3.20;3.10;;;;;;;;;;5069911;28;20432;-67
2023/05/12 14:18:54;;;;;;;3.57;3.30;;;;;;;;;;5069298;28;20477;-67
2023/05/12 14:21:20;;;;;;;2.93;2.83;;;;;;;;;;5071095;28;20425;-68
2023/05/12 14:23:46;;;;;;;2.47;2.47;;;;;;;;;;5071022;28;20948;-68
2023/05/12 14:26:12;;;;;;;3.07;2.97;;;;;;;;;;5072088;28;20429;-71
2023/05/12 14:28:38;;;;;;;3.23;2.63;;;;;;;;;;5071517;28;20440;-68
2023/05/12 14:31:04;;;;;;;3.37;3.27;;;;;;;;;;5071527;28;20421;-70
2023/05/12 14:33:31;;;;;;;3.37;3.27;;;;;;;;;;5068130;28;20848;-70
2023/05/12 14:35:57;;;;;;;2.77;2.63;;;;;;;;;;5069353;28;20433;-69
2023/05/12 14:38:23;;;;;;;5.40;2.53;;;;;;;;;;5057056;28;20581;-70
2023/05/12 14:40:49;;;;;;;3.83;3.63;;;;;;;;;;5065545;28;20468;-70